Aviation Digital Data Service (ADDS)

Output produced by METARs form (0740 UTC 20 March 2019)
found at http://www.aviationweather.gov/metar/data/
 
Forecast for: UMMS (MINSK , BY)
Text: TAF UMMS 200502Z 2006/2106 26005G10MPS 9999 SCT015
Forecast period: 0600 UTC 20 March 2019 to 0600 UTC 21 March 2019
Forecast type: FROM: standard forecast or significant change
Winds: from the W (260 degrees) at 12 MPH (10 knots; 5.1 m/s)
gusting to 22 MPH (19 knots; 9.8 m/s)
Visibility: 6 or more miles 10+ km)
Ceiling: at least 12,000 feet AGL
Clouds: scattered clouds at 1500 feet AGL
Weather: no significant weather forecast for this period
Text: TEMPO 2011/2018 28008G13MPS 3000 -SHRASN SCT008 BKN017CB
Forecast period: 1100 to 1800 UTC 20 March 2019
Forecast type: TEMPORARY: The following changes expected for less than half the time period
Winds: from the W (280 degrees) at 18 MPH (16 knots; 8.2 m/s)
gusting to 29 MPH (25 knots; 12.9 m/s)
Visibility: 1.86 miles (2.99 km)
Ceiling: 1700 feet AGL
Clouds: scattered clouds at 800 feet AGL
broken clouds at 1700 feet AGL
Weather: -SHRA -SHSN  (light rain showers, light snow showers)
Text: TEMPO 2100/2106 2100 -RASN BR BKN003
Forecast period: 0000 to 0600 UTC 21 March 2019
Forecast type: TEMPORARY: The following changes expected for less than half the time period
Visibility: 1.30 miles (2.09 km)
Ceiling: 300 feet AGL
Clouds: broken clouds at 300 feet AGL
Weather: -RA -SN BR  (light rain, light snow, mist)